sensor_id;sensor_type;location;lat;lon;timestamp;pressure;altitude;pressure_sealevel;temperature;humidity
22662;BME280;11497;52.222;21.246;2023-02-08T00:00:59;103080.66;;;0.08;87.83
22662;BME280;11497;52.222;21.246;2023-02-08T00:03:27;103070.69;;;0.14;87.69
22662;BME280;11497;52.222;21.246;2023-02-08T00:05:55;103082.75;;;0.15;88.00
22662;BME280;11497;52.222;21.246;2023-02-08T00:08:23;103083.56;;;0.14;87.80
22662;BME280;11497;52.222;21.246;2023-02-08T00:10:51;103085.09;;;0.11;88.08
22662;BME280;11497;52.222;21.246;2023-02-08T00:13:19;103091.06;;;0.10;87.80
22662;BME280;11497;52.222;21.246;2023-02-08T00:15:47;103089.34;;;0.10;87.97
22662;BME280;11497;52.222;21.246;2023-02-08T00:18:15;103097.88;;;0.09;88.23
22662;BME280;11497;52.222;21.246;2023-02-08T00:20:43;103091.47;;;0.17;87.97
22662;BME280;11497;52.222;21.246;2023-02-08T00:23:12;103093.63;;;0.10;87.93
22662;BME280;11497;52.222;21.246;2023-02-08T00:25:40;103096.13;;;0.08;88.24
22662;BME280;11497;52.222;21.246;2023-02-08T00:28:12;103097.81;;;0.24;87.95
22662;BME280;11497;52.222;21.246;2023-02-08T00:30:42;103099.66;;;0.10;88.05
22662;BME280;11497;52.222;21.246;2023-02-08T00:33:11;103097.00;;;0.09;87.95
22662;BME280;11497;52.222;21.246;2023-02-08T00:35:39;103096.19;;;0.10;87.79
22662;BME280;11497;52.222;21.246;2023-02-08T00:38:08;103102.41;;;0.13;88.01
22662;BME280;11497;52.222;21.246;2023-02-08T00:40:36;103099.50;;;0.07;88.21
22662;BME280;11497;52.222;21.246;2023-02-08T00:43:04;103098.78;;;0.10;88.08
22662;BME280;11497;52.222;21.246;2023-02-08T00:45:34;103096.13;;;0.08;88.11
22662;BME280;11497;52.222;21.246;2023-02-08T00:48:02;103101.09;;;0.05;88.21
22662;BME280;11497;52.222;21.246;2023-02-08T00:50:29;103099.66;;;0.10;88.26
22662;BME280;11497;52.222;21.246;2023-02-08T00:52:58;103100.53;;;0.11;88.32
22662;BME280;11497;52.222;21.246;2023-02-08T00:55:26;103104.47;;;0.04;88.26
22662;BME280;11497;52.222;21.246;2023-02-08T00:57:54;103103.03;;;0.09;87.96
22662;BME280;11497;52.222;21.246;2023-02-08T01:00:22;103111.13;;;-0.01;87.96
22662;BME280;11497;52.222;21.246;2023-02-08T01:02:50;103103.31;;;-0.03;88.15
22662;BME280;11497;52.222;21.246;2023-02-08T01:05:17;103107.72;;;0.00;88.51
22662;BME280;11497;52.222;21.246;2023-02-08T01:07:45;103106.97;;;0.03;88.57
22662;BME280;11497;52.222;21.246;2023-02-08T01:10:13;103110.34;;;0.02;88.71
22662;BME280;11497;52.222;21.246;2023-02-08T01:12:41;103100.81;;;-0.01;88.54
22662;BME280;11497;52.222;21.246;2023-02-08T01:15:09;103105.38;;;0.05;88.62
22662;BME280;11497;52.222;21.246;2023-02-08T01:17:38;103111.13;;;-0.01;88.75
22662;BME280;11497;52.222;21.246;2023-02-08T01:20:06;103111.41;;;0.05;88.87
22662;BME280;11497;52.222;21.246;2023-02-08T01:22:35;103116.56;;;0.05;88.87
22662;BME280;11497;52.222;21.246;2023-02-08T01:25:03;103115.28;;;0.13;88.94
22662;BME280;11497;52.222;21.246;2023-02-08T01:27:31;103115.66;;;0.05;88.57
22662;BME280;11497;52.222;21.246;2023-02-08T01:29:58;103122.22;;;-0.02;88.86
22662;BME280;11497;52.222;21.246;2023-02-08T01:32:28;103115.38;;;-0.02;89.07
22662;BME280;11497;52.222;21.246;2023-02-08T01:34:55;103109.47;;;0.01;88.70
22662;BME280;11497;52.222;21.246;2023-02-08T01:37:23;103122.06;;;-0.05;88.48
22662;BME280;11497;52.222;21.246;2023-02-08T01:39:51;103119.47;;;-0.05;88.51
22662;BME280;11497;52.222;21.246;2023-02-08T01:42:21;103110.88;;;-0.06;88.64
22662;BME280;11497;52.222;21.246;2023-02-08T01:47:53;103108.84;;;0.05;88.37
22662;BME280;11497;52.222;21.246;2023-02-08T01:50:22;103108.50;;;0.15;88.27
22662;BME280;11497;52.222;21.246;2023-02-08T01:52:53;103111.09;;;0.31;87.79
22662;BME280;11497;52.222;21.246;2023-02-08T01:55:34;103109.97;;;0.43;87.23
22662;BME280;11497;52.222;21.246;2023-02-08T01:58:07;103113.03;;;0.36;87.04
22662;BME280;11497;52.222;21.246;2023-02-08T02:00:36;103111.25;;;0.18;87.15
22662;BME280;11497;52.222;21.246;2023-02-08T02:03:05;103112.88;;;0.00;87.56
22662;BME280;11497;52.222;21.246;2023-02-08T02:05:42;103115.28;;;-0.03;88.00
22662;BME280;11497;52.222;21.246;2023-02-08T02:08:12;103124.84;;;0.16;88.47
22662;BME280;11497;52.222;21.246;2023-02-08T02:10:40;103123.88;;;0.14;88.57
22662;BME280;11497;52.222;21.246;2023-02-08T02:13:16;103123.50;;;0.39;88.36
22662;BME280;11497;52.222;21.246;2023-02-08T02:15:45;103135.56;;;0.40;87.85
22662;BME280;11497;52.222;21.246;2023-02-08T02:18:19;103127.34;;;0.30;87.71
22662;BME280;11497;52.222;21.246;2023-02-08T02:29:18;103133.06;;;0.09;87.54
22662;BME280;11497;52.222;21.246;2023-02-08T02:40:09;103151.16;;;0.10;88.52
22662;BME280;11497;52.222;21.246;2023-02-08T02:43:08;103153.91;;;0.13;88.70
22662;BME280;11497;52.222;21.246;2023-02-08T02:46:09;103155.19;;;0.05;88.57
22662;BME280;11497;52.222;21.246;2023-02-08T02:49:02;103150.94;;;0.22;88.74
22662;BME280;11497;52.222;21.246;2023-02-08T02:51:57;103151.03;;;0.40;87.92
22662;BME280;11497;52.222;21.246;2023-02-08T02:54:39;103152.63;;;0.21;87.69
22662;BME280;11497;52.222;21.246;2023-02-08T02:57:13;103157.84;;;0.07;87.77
22662;BME280;11497;52.222;21.246;2023-02-08T02:59:43;103160.97;;;0.01;87.98
22662;BME280;11497;52.222;21.246;2023-02-08T03:02:13;103158.81;;;0.09;88.22
22662;BME280;11497;52.222;21.246;2023-02-08T03:18:29;103154.22;;;-0.13;89.14
22662;BME280;11497;52.222;21.246;2023-02-08T03:21:05;103156.78;;;-0.13;89.31
22662;BME280;11497;52.222;21.246;2023-02-08T03:26:45;103164.34;;;-0.16;89.91
22662;BME280;11497;52.222;21.246;2023-02-08T03:32:14;103172.06;;;-0.16;90.11
22662;BME280;11497;52.222;21.246;2023-02-08T03:37:31;103173.13;;;-0.13;89.86
22662;BME280;11497;52.222;21.246;2023-02-08T03:40:10;103176.59;;;-0.12;90.14
22662;BME280;11497;52.222;21.246;2023-02-08T03:42:40;103186.59;;;-0.02;89.86
22662;BME280;11497;52.222;21.246;2023-02-08T03:45:17;103186.06;;;-0.11;89.82
22662;BME280;11497;52.222;21.246;2023-02-08T03:47:49;103178.97;;;-0.15;90.20
22662;BME280;11497;52.222;21.246;2023-02-08T03:50:21;103183.97;;;-0.18;89.99
22662;BME280;11497;52.222;21.246;2023-02-08T03:52:50;103181.66;;;-0.14;90.01
22662;BME280;11497;52.222;21.246;2023-02-08T03:55:29;103184.66;;;-0.06;90.02
22662;BME280;11497;52.222;21.246;2023-02-08T03:58:02;103182.88;;;-0.07;90.07
22662;BME280;11497;52.222;21.246;2023-02-08T04:00:36;103189.78;;;-0.06;89.87
22662;BME280;11497;52.222;21.246;2023-02-08T04:03:14;103188.19;;;-0.04;89.94
22662;BME280;11497;52.222;21.246;2023-02-08T04:05:44;103190.84;;;-0.03;89.78
22662;BME280;11497;52.222;21.246;2023-02-08T04:08:12;103188.91;;;-0.07;89.60
22662;BME280;11497;52.222;21.246;2023-02-08T04:10:39;103187.13;;;0.09;89.92
22662;BME280;11497;52.222;21.246;2023-02-08T04:13:07;103191.88;;;0.01;89.68
22662;BME280;11497;52.222;21.246;2023-02-08T04:15:35;103192.03;;;0.04;89.69
22662;BME280;11497;52.222;21.246;2023-02-08T04:18:04;103195.75;;;0.09;89.49
22662;BME280;11497;52.222;21.246;2023-02-08T04:20:32;103201.63;;;0.07;89.57
22662;BME280;11497;52.222;21.246;2023-02-08T04:22:59;103197.19;;;0.04;89.62
22662;BME280;11497;52.222;21.246;2023-02-08T04:25:27;103198.50;;;-0.04;89.71
22662;BME280;11497;52.222;21.246;2023-02-08T04:27:55;103194.59;;;-0.12;90.04
22662;BME280;11497;52.222;21.246;2023-02-08T04:30:23;103205.25;;;-0.06;90.11
22662;BME280;11497;52.222;21.246;2023-02-08T04:32:51;103198.50;;;-0.04;90.22
22662;BME280;11497;52.222;21.246;2023-02-08T04:35:18;103195.09;;;-0.03;90.01
22662;BME280;11497;52.222;21.246;2023-02-08T04:37:46;103198.84;;;0.18;89.86
22662;BME280;11497;52.222;21.246;2023-02-08T04:40:14;103200.44;;;0.16;89.34
22662;BME280;11497;52.222;21.246;2023-02-08T04:42:42;103196.41;;;0.21;89.40
22662;BME280;11497;52.222;21.246;2023-02-08T04:45:10;103194.34;;;0.30;89.06
22662;BME280;11497;52.222;21.246;2023-02-08T04:47:37;103202.31;;;0.35;88.42
22662;BME280;11497;52.222;21.246;2023-02-08T04:50:05;103208.31;;;0.19;87.74
22662;BME280;11497;52.222;21.246;2023-02-08T04:52:33;103206.81;;;0.23;87.93
22662;BME280;11497;52.222;21.246;2023-02-08T04:55:01;103208.34;;;0.36;87.64
22662;BME280;11497;52.222;21.246;2023-02-08T04:57:29;103201.75;;;0.24;87.59
22662;BME280;11497;52.222;21.246;2023-02-08T04:59:56;103208.31;;;0.19;87.60
22662;BME280;11497;52.222;21.246;2023-02-08T05:02:26;103206.78;;;0.07;87.56
22662;BME280;11497;52.222;21.246;2023-02-08T05:04:54;103207.66;;;0.07;87.97
22662;BME280;11497;52.222;21.246;2023-02-08T05:07:22;103204.97;;;0.37;87.84
22662;BME280;11497;52.222;21.246;2023-02-08T05:09:50;103203.66;;;0.45;87.23
22662;BME280;11497;52.222;21.246;2023-02-08T05:12:18;103212.03;;;0.24;87.06
22662;BME280;11497;52.222;21.246;2023-02-08T05:14:45;103212.25;;;0.13;87.09
22662;BME280;11497;52.222;21.246;2023-02-08T05:17:13;103217.84;;;0.37;86.92
22662;BME280;11497;52.222;21.246;2023-02-08T05:19:41;103228.88;;;0.34;86.70
22662;BME280;11497;52.222;21.246;2023-02-08T05:22:08;103224.88;;;0.39;86.42
22662;BME280;11497;52.222;21.246;2023-02-08T05:24:36;103230.53;;;0.17;86.38
22662;BME280;11497;52.222;21.246;2023-02-08T05:27:04;103232.88;;;0.13;86.96
22662;BME280;11497;52.222;21.246;2023-02-08T05:29:32;103238.13;;;0.30;87.14
22662;BME280;11497;52.222;21.246;2023-02-08T05:31:59;103242.91;;;0.39;86.69
22662;BME280;11497;52.222;21.246;2023-02-08T05:34:27;103242.63;;;0.18;86.82
22662;BME280;11497;52.222;21.246;2023-02-08T05:36:55;103242.28;;;0.12;87.13
22662;BME280;11497;52.222;21.246;2023-02-08T05:39:23;103239.88;;;0.15;87.60
22662;BME280;11497;52.222;21.246;2023-02-08T05:41:50;103244.81;;;0.27;87.42
22662;BME280;11497;52.222;21.246;2023-02-08T05:44:18;103248.88;;;0.07;87.38
22662;BME280;11497;52.222;21.246;2023-02-08T05:46:46;103247.31;;;-0.06;87.61
22662;BME280;11497;52.222;21.246;2023-02-08T05:49:14;103256.13;;;0.14;88.00
22662;BME280;11497;52.222;21.246;2023-02-08T05:51:42;103259.72;;;0.02;88.09
22662;BME280;11497;52.222;21.246;2023-02-08T05:54:10;103264.72;;;-0.02;88.10
22662;BME280;11497;52.222;21.246;2023-02-08T05:56:37;103261.25;;;-0.02;88.65
22662;BME280;11497;52.222;21.246;2023-02-08T05:59:05;103270.19;;;0.36;88.18
22662;BME280;11497;52.222;21.246;2023-02-08T06:01:33;103267.06;;;0.41;87.56
22662;BME280;11497;52.222;21.246;2023-02-08T06:04:01;103270.94;;;0.18;87.03
22662;BME280;11497;52.222;21.246;2023-02-08T06:06:29;103278.16;;;0.09;87.21
22662;BME280;11497;52.222;21.246;2023-02-08T06:08:57;103277.44;;;0.12;87.60
22662;BME280;11497;52.222;21.246;2023-02-08T06:11:24;103278.59;;;0.17;87.64
22662;BME280;11497;52.222;21.246;2023-02-08T06:13:52;103285.13;;;0.26;87.42
22662;BME280;11497;52.222;21.246;2023-02-08T06:16:20;103283.06;;;0.36;87.09
22662;BME280;11497;52.222;21.246;2023-02-08T06:18:48;103282.09;;;0.33;86.74
22662;BME280;11497;52.222;21.246;2023-02-08T06:21:15;103289.50;;;0.27;87.00
22662;BME280;11497;52.222;21.246;2023-02-08T06:23:43;103289.50;;;0.27;87.00
22662;BME280;11497;52.222;21.246;2023-02-08T06:26:11;103293.16;;;0.16;87.07
22662;BME280;11497;52.222;21.246;2023-02-08T06:28:39;103298.66;;;0.22;87.24
22662;BME280;11497;52.222;21.246;2023-02-08T06:31:07;103296.75;;;0.35;87.23
22662;BME280;11497;52.222;21.246;2023-02-08T06:33:35;103297.00;;;0.39;86.96
22662;BME280;11497;52.222;21.246;2023-02-08T06:36:02;103292.41;;;0.33;86.81
22662;BME280;11497;52.222;21.246;2023-02-08T06:38:30;103293.03;;;0.29;86.68
22662;BME280;11497;52.222;21.246;2023-02-08T06:40:58;103286.53;;;0.36;86.33
22662;BME280;11497;52.222;21.246;2023-02-08T06:43:26;103297.72;;;0.53;86.10
22662;BME280;11497;52.222;21.246;2023-02-08T06:45:54;103292.84;;;0.41;86.01
22662;BME280;11497;52.222;21.246;2023-02-08T06:48:21;103292.91;;;0.43;86.08
22662;BME280;11497;52.222;21.246;2023-02-08T06:50:51;103297.34;;;0.61;85.84
22662;BME280;11497;52.222;21.246;2023-02-08T06:53:20;103305.00;;;0.60;85.28
22662;BME280;11497;52.222;21.246;2023-02-08T06:55:51;103311.59;;;0.55;85.35
22662;BME280;11497;52.222;21.246;2023-02-08T06:58:19;103314.81;;;0.51;85.32
22662;BME280;11497;52.222;21.246;2023-02-08T07:00:47;103325.25;;;0.69;85.27
22662;BME280;11497;52.222;21.246;2023-02-08T07:03:15;103321.13;;;0.72;85.04
22662;BME280;11497;52.222;21.246;2023-02-08T07:05:44;103321.84;;;0.70;84.66
22662;BME280;11497;52.222;21.246;2023-02-08T07:08:32;103330.16;;;0.80;84.58
22662;BME280;11497;52.222;21.246;2023-02-08T07:11:04;103337.09;;;0.81;84.11
22662;BME280;11497;52.222;21.246;2023-02-08T07:13:32;103346.19;;;0.75;84.16
22662;BME280;11497;52.222;21.246;2023-02-08T07:15:59;103342.25;;;0.81;83.50
22662;BME280;11497;52.222;21.246;2023-02-08T07:18:27;103359.25;;;0.94;83.30
22662;BME280;11497;52.222;21.246;2023-02-08T07:20:55;103354.50;;;0.85;82.93
22662;BME280;11497;52.222;21.246;2023-02-08T07:23:23;103351.19;;;0.72;83.25
22662;BME280;11497;52.222;21.246;2023-02-08T07:26:04;103349.34;;;0.85;83.49
22662;BME280;11497;52.222;21.246;2023-02-08T07:28:32;103347.88;;;0.90;82.97
22662;BME280;11497;52.222;21.246;2023-02-08T07:31:03;103352.97;;;1.05;82.85
22662;BME280;11497;52.222;21.246;2023-02-08T07:33:31;103346.28;;;0.92;82.68
22662;BME280;11497;52.222;21.246;2023-02-08T07:35:59;103344.66;;;1.11;82.31
22662;BME280;11497;52.222;21.246;2023-02-08T07:38:27;103344.50;;;1.08;82.13
22662;BME280;11497;52.222;21.246;2023-02-08T07:41:06;103347.75;;;1.20;81.76
22662;BME280;11497;52.222;21.246;2023-02-08T07:43:36;103341.44;;;1.15;81.45
22662;BME280;11497;52.222;21.246;2023-02-08T07:46:10;103340.41;;;1.27;81.07
22662;BME280;11497;52.222;21.246;2023-02-08T07:48:38;103338.06;;;1.16;80.81
22662;BME280;11497;52.222;21.246;2023-02-08T07:51:07;103341.44;;;1.15;80.82
22662;BME280;11497;52.222;21.246;2023-02-08T07:53:35;103337.75;;;1.10;81.15
22662;BME280;11497;52.222;21.246;2023-02-08T07:56:04;103339.81;;;1.33;80.87
22662;BME280;11497;52.222;21.246;2023-02-08T07:58:32;103344.72;;;1.45;79.92
22662;BME280;11497;52.222;21.246;2023-02-08T08:00:59;103343.50;;;1.38;79.80
22662;BME280;11497;52.222;21.246;2023-02-08T08:03:42;103344.97;;;1.33;80.04
22662;BME280;11497;52.222;21.246;2023-02-08T08:06:10;103343.50;;;1.38;80.28
22662;BME280;11497;52.222;21.246;2023-02-08T08:08:38;103353.75;;;1.53;79.84
22662;BME280;11497;52.222;21.246;2023-02-08T08:11:06;103353.16;;;1.58;79.28
22662;BME280;11497;52.222;21.246;2023-02-08T08:13:34;103354.63;;;1.53;79.78
22662;BME280;11497;52.222;21.246;2023-02-08T08:16:01;103354.00;;;1.75;79.25
22662;BME280;11497;52.222;21.246;2023-02-08T08:18:29;103349.66;;;1.92;78.24
22662;BME280;11497;52.222;21.246;2023-02-08T08:20:57;103351.91;;;2.02;77.39
22662;BME280;11497;52.222;21.246;2023-02-08T08:23:25;103360.84;;;1.75;77.70
22662;BME280;11497;52.222;21.246;2023-02-08T08:25:55;103359.38;;;1.80;77.59
22662;BME280;11497;52.222;21.246;2023-02-08T08:28:23;103359.97;;;2.08;77.17
22662;BME280;11497;52.222;21.246;2023-02-08T08:30:51;103355.44;;;2.04;76.59
22662;BME280;11497;52.222;21.246;2023-02-08T08:33:19;103355.09;;;2.14;76.53
22662;BME280;11497;52.222;21.246;2023-02-08T08:35:47;103358.69;;;2.18;76.41
22662;BME280;11497;52.222;21.246;2023-02-08T08:38:15;103352.91;;;2.59;75.14
22662;BME280;11497;52.222;21.246;2023-02-08T08:40:43;103353.81;;;2.42;75.21
22662;BME280;11497;52.222;21.246;2023-02-08T08:43:11;103360.53;;;2.56;74.72
22662;BME280;11497;52.222;21.246;2023-02-08T08:45:38;103366.81;;;2.80;74.06
22662;BME280;11497;52.222;21.246;2023-02-08T08:48:06;103364.38;;;2.83;73.35
22662;BME280;11497;52.222;21.246;2023-02-08T08:50:34;103358.56;;;2.70;72.44
22662;BME280;11497;52.222;21.246;2023-02-08T08:53:02;103366.09;;;2.65;72.54
22662;BME280;11497;52.222;21.246;2023-02-08T08:55:29;103370.19;;;2.60;72.62
22662;BME280;11497;52.222;21.246;2023-02-08T08:57:57;103344.28;;;2.41;72.56
22662;BME280;11497;52.222;21.246;2023-02-08T09:00:25;103360.25;;;2.69;72.49
22662;BME280;11497;52.222;21.246;2023-02-08T09:02:53;103372.38;;;2.70;72.27
22662;BME280;11497;52.222;21.246;2023-02-08T09:05:21;103376.22;;;2.60;72.60
22662;BME280;11497;52.222;21.246;2023-02-08T09:07:49;103371.19;;;2.81;72.53
22662;BME280;11497;52.222;21.246;2023-02-08T09:10:17;103377.31;;;2.83;72.74
22662;BME280;11497;52.222;21.246;2023-02-08T09:12:45;103368.41;;;3.15;72.31
22662;BME280;11497;52.222;21.246;2023-02-08T09:15:13;103374.06;;;3.26;71.81
22662;BME280;11497;52.222;21.246;2023-02-08T09:17:41;103364.81;;;3.52;70.71
22662;BME280;11497;52.222;21.246;2023-02-08T09:20:09;103372.72;;;3.55;70.51
22662;BME280;11497;52.222;21.246;2023-02-08T09:22:37;103370.56;;;3.85;69.24
22662;BME280;11497;52.222;21.246;2023-02-08T09:25:05;103372.09;;;3.60;69.17
22662;BME280;11497;52.222;21.246;2023-02-08T09:27:34;103376.03;;;3.72;68.59
22662;BME280;11497;52.222;21.246;2023-02-08T09:30:04;103378.78;;;3.75;68.81
22662;BME280;11497;52.222;21.246;2023-02-08T09:32:33;103369.47;;;4.00;67.48
22662;BME280;11497;52.222;21.246;2023-02-08T09:35:01;103368.41;;;3.95;67.45
22662;BME280;11497;52.222;21.246;2023-02-08T09:37:29;103373.41;;;4.12;66.94
22662;BME280;11497;52.222;21.246;2023-02-08T09:39:57;103385.16;;;4.24;66.97
22662;BME280;11497;52.222;21.246;2023-02-08T09:42:34;103383.34;;;4.44;65.37
22662;BME280;11497;52.222;21.246;2023-02-08T09:48:12;103380.47;;;4.59;64.02
22662;BME280;11497;52.222;21.246;2023-02-08T09:50:49;103381.59;;;4.65;63.32
22662;BME280;11497;52.222;21.246;2023-02-08T09:53:31;103381.06;;;4.74;62.36
22662;BME280;11497;52.222;21.246;2023-02-08T09:56:05;103370.72;;;4.53;62.01
22662;BME280;11497;52.222;21.246;2023-02-08T09:58:46;103369.47;;;4.44;61.94
22662;BME280;11497;52.222;21.246;2023-02-08T10:01:20;103372.75;;;4.60;59.99
22662;BME280;11497;52.222;21.246;2023-02-08T10:03:51;103380.50;;;4.38;59.96
22662;BME280;11497;52.222;21.246;2023-02-08T10:06:20;103378.25;;;4.04;59.05
22662;BME280;11497;52.222;21.246;2023-02-08T10:08:50;103383.13;;;4.17;59.41
22662;BME280;11497;52.222;21.246;2023-02-08T10:14:15;103384.00;;;3.97;57.99
22662;BME280;11497;52.222;21.246;2023-02-08T10:19:37;103374.97;;;3.66;55.46
22662;BME280;11497;52.222;21.246;2023-02-08T10:35:39;103382.91;;;3.31;56.05
22662;BME280;11497;52.222;21.246;2023-02-08T10:38:26;103384.69;;;3.32;56.03
22662;BME280;11497;52.222;21.246;2023-02-08T10:41:18;103385.16;;;3.23;55.42
22662;BME280;11497;52.222;21.246;2023-02-08T10:46:49;103378.00;;;3.18;55.18
22662;BME280;11497;52.222;21.246;2023-02-08T10:51:58;103370.41;;;3.61;53.71
22662;BME280;11497;52.222;21.246;2023-02-08T10:54:26;103370.00;;;3.52;52.77
22662;BME280;11497;52.222;21.246;2023-02-08T10:57:02;103367.88;;;3.62;53.00
22662;BME280;11497;52.222;21.246;2023-02-08T10:59:43;103361.47;;;3.74;52.41
22662;BME280;11497;52.222;21.246;2023-02-08T11:02:39;103356.41;;;3.77;52.16
22662;BME280;11497;52.222;21.246;2023-02-08T11:05:12;103351.34;;;3.80;51.81
22662;BME280;11497;52.222;21.246;2023-02-08T11:07:40;103351.34;;;3.80;51.87
22662;BME280;11497;52.222;21.246;2023-02-08T11:13:14;103349.19;;;3.70;51.35
22662;BME280;11497;52.222;21.246;2023-02-08T11:15:50;103351.13;;;3.54;51.95
22662;BME280;11497;52.222;21.246;2023-02-08T11:21:09;103356.97;;;3.29;53.06
22662;BME280;11497;52.222;21.246;2023-02-08T11:23:51;103358.38;;;3.04;53.05
22662;BME280;11497;52.222;21.246;2023-02-08T11:26:31;103359.22;;;3.41;53.36
22662;BME280;11497;52.222;21.246;2023-02-08T11:29:02;103355.03;;;3.06;53.13
22662;BME280;11497;52.222;21.246;2023-02-08T11:31:32;103351.44;;;3.22;53.75
22662;BME280;11497;52.222;21.246;2023-02-08T11:34:08;103339.31;;;3.21;53.13
22662;BME280;11497;52.222;21.246;2023-02-08T11:36:45;103345.72;;;3.29;53.51
22662;BME280;11497;52.222;21.246;2023-02-08T11:39:23;103352.81;;;3.54;53.33
22662;BME280;11497;52.222;21.246;2023-02-08T11:41:55;103358.06;;;3.55;52.70
22662;BME280;11497;52.222;21.246;2023-02-08T11:44:32;103359.22;;;3.41;52.36
22662;BME280;11497;52.222;21.246;2023-02-08T11:47:03;103355.22;;;3.49;52.30
22662;BME280;11497;52.222;21.246;2023-02-08T11:49:40;103350.63;;;3.42;52.75
22662;BME280;11497;52.222;21.246;2023-02-08T11:54:48;103351.38;;;3.60;52.88
22662;BME280;11497;52.222;21.246;2023-02-08T11:57:16;103353.03;;;3.58;51.60
22662;BME280;11497;52.222;21.246;2023-02-08T11:59:47;103346.19;;;3.60;51.56
22662;BME280;11497;52.222;21.246;2023-02-08T12:02:35;103343.25;;;3.72;51.66
22662;BME280;11497;52.222;21.246;2023-02-08T12:05:11;103340.84;;;3.77;51.86
22662;BME280;11497;52.222;21.246;2023-02-08T12:10:41;103340.91;;;3.99;50.66
22662;BME280;11497;52.222;21.246;2023-02-08T12:21:42;103342.16;;;4.74;50.19
22662;BME280;11497;52.222;21.246;2023-02-08T12:24:31;103341.16;;;4.94;49.38
22662;BME280;11497;52.222;21.246;2023-02-08T12:41:46;103327.16;;;4.45;47.83
22662;BME280;11497;52.222;21.246;2023-02-08T12:44:40;103328.47;;;4.56;47.75
22662;BME280;11497;52.222;21.246;2023-02-08T12:50:09;103323.16;;;4.53;47.21
22662;BME280;11497;52.222;21.246;2023-02-08T12:52:49;103321.03;;;4.43;47.08
22662;BME280;11497;52.222;21.246;2023-02-08T12:57:59;103313.03;;;4.59;47.69
22662;BME280;11497;52.222;21.246;2023-02-08T13:00:31;103311.38;;;4.39;47.83
22662;BME280;11497;52.222;21.246;2023-02-08T13:03:29;103306.66;;;4.51;47.50
22662;BME280;11497;52.222;21.246;2023-02-08T13:06:05;103301.94;;;4.63;47.20
22662;BME280;11497;52.222;21.246;2023-02-08T13:08:46;103298.22;;;4.56;47.05
22662;BME280;11497;52.222;21.246;2023-02-08T13:11:41;103294.16;;;4.63;47.20
22662;BME280;11497;52.222;21.246;2023-02-08T13:16:56;103289.50;;;4.54;46.80
22662;BME280;11497;52.222;21.246;2023-02-08T13:19:49;103298.41;;;4.39;46.95
22662;BME280;11497;52.222;21.246;2023-02-08T13:22:31;103295.44;;;4.52;47.04
22662;BME280;11497;52.222;21.246;2023-02-08T13:25:02;103291.31;;;4.34;46.99
22662;BME280;11497;52.222;21.246;2023-02-08T13:27:35;103287.47;;;4.23;47.54
22662;BME280;11497;52.222;21.246;2023-02-08T13:30:03;103288.91;;;4.17;47.21
22662;BME280;11497;52.222;21.246;2023-02-08T13:32:41;103294.16;;;4.18;47.11
22662;BME280;11497;52.222;21.246;2023-02-08T13:35:15;103289.16;;;4.23;47.15
22662;BME280;11497;52.222;21.246;2023-02-08T13:37:51;103279.09;;;4.30;47.62
22662;BME280;11497;52.222;21.246;2023-02-08T13:40:27;103282.91;;;4.18;47.49
22662;BME280;11497;52.222;21.246;2023-02-08T13:43:00;103282.53;;;3.86;47.21
22662;BME280;11497;52.222;21.246;2023-02-08T13:45:36;103281.78;;;3.89;47.70
22662;BME280;11497;52.222;21.246;2023-02-08T13:48:06;103274.09;;;3.92;48.11
22662;BME280;11497;52.222;21.246;2023-02-08T13:50:57;103271.97;;;3.82;48.34
22662;BME280;11497;52.222;21.246;2023-02-08T13:56:09;103281.19;;;3.54;48.78
22662;BME280;11497;52.222;21.246;2023-02-08T13:58:56;103282.47;;;3.43;49.04
22662;BME280;11497;52.222;21.246;2023-02-08T14:01:26;103281.41;;;3.19;49.39
22662;BME280;11497;52.222;21.246;2023-02-08T14:06:56;103276.47;;;3.04;49.40
22662;BME280;11497;52.222;21.246;2023-02-08T14:09:57;103282.66;;;3.08;49.52
22662;BME280;11497;52.222;21.246;2023-02-08T14:12:50;103279.91;;;3.03;49.73
22662;BME280;11497;52.222;21.246;2023-02-08T14:15:30;103282.06;;;2.75;49.07
22662;BME280;11497;52.222;21.246;2023-02-08T14:17:59;103282.75;;;2.71;50.03
22662;BME280;11497;52.222;21.246;2023-02-08T14:20:36;103284.59;;;2.54;50.00
22662;BME280;11497;52.222;21.246;2023-02-08T14:23:20;103280.81;;;2.47;50.72
22662;BME280;11497;52.222;21.246;2023-02-08T14:25:50;103276.53;;;2.48;50.87
22662;BME280;11497;52.222;21.246;2023-02-08T14:28:43;103278.94;;;2.25;51.50
22662;BME280;11497;52.222;21.246;2023-02-08T14:31:14;103272.09;;;2.08;51.48
22662;BME280;11497;52.222;21.246;2023-02-08T14:33:53;103282.75;;;1.96;52.07
22662;BME280;11497;52.222;21.246;2023-02-08T14:36:32;103281.91;;;1.80;52.39
22662;BME280;11497;52.222;21.246;2023-02-08T14:41:59;103275.38;;;1.69;53.14
22662;BME280;11497;52.222;21.246;2023-02-08T14:50:11;103278.09;;;1.38;53.99
22662;BME280;11497;52.222;21.246;2023-02-08T14:52:49;103270.00;;;1.30;53.93
22662;BME280;11497;52.222;21.246;2023-02-08T14:55:25;103276.25;;;1.01;54.50
22662;BME280;11497;52.222;21.246;2023-02-08T14:57:55;103282.16;;;0.82;54.96
22662;BME280;11497;52.222;21.246;2023-02-08T15:00:29;103283.75;;;0.64;55.37
22662;BME280;11497;52.222;21.246;2023-02-08T15:03:00;103281.00;;;0.61;55.56
22662;BME280;11497;52.222;21.246;2023-02-08T15:05:39;103276.91;;;0.64;56.01
22662;BME280;11497;52.222;21.246;2023-02-08T15:08:11;103278.41;;;0.45;56.38
22662;BME280;11497;52.222;21.246;2023-02-08T15:10:42;103277.28;;;0.40;56.76
22662;BME280;11497;52.222;21.246;2023-02-08T15:13:19;103279.72;;;0.22;56.83
22662;BME280;11497;52.222;21.246;2023-02-08T15:15:51;103282.25;;;0.06;57.37
22662;BME280;11497;52.222;21.246;2023-02-08T15:18:38;103243.09;;;-0.20;57.80